コペンハーゲン の空港の天気 - METARとTAF

コペンハーゲン国際空港 ( EKCH / CPH ) - デンマーク コペンハーゲン
飛行場実況気象(Metar)
観測時間02/17 15:50 CET (02/17 14:50 UTC)
風向・風速南東 3m/s
視程-
天気現象もや
全天の8割程度の雲 雲底高度 880m
気温7℃
湿度93%
気圧1022hPa
METAREKCH 171450Z AUTO 14005KT 2600NDV BR BKN029/// 07/06 Q1022 TEMPO 4000
過去の天気等 Google飛行場航空写真 Wunderground天気予報

過去48時間のMETAR

飛行場予報(TAF)
発表時間: 2/17 12:01 CET (2/17 11:01 UTC)
予報対象時間: 17日13時 CET ~ 18日13時 CET
風向・風速不定 2m/s
視程8000m
全天の8割程度の雲 雲底高度 610m
17日13時 CET ~ 17日21時 CET に一時的に
視程4000m
天気現象もや
全天の8割程度の雲 雲底高度 240m
17日19時 CET ~ 17日22時 CET に徐々に
風向・風速南南東 5m/s
17日21時 CET ~ 18日10時 CET に一時的に
視程2000m
天気現象もや
TAF EKCH 171101Z 1712/1812 VRB03KT 8000 BKN020
TEMPO 1712/1720 4000 BR BKN008
BECMG 1718/1721 16010KT
TEMPO 1720/1809 2000 BR